sensor_id;sensor_type;location;lat;lon;timestamp;temperature;humidity
3678;DHT22;1855;50.934;6.958;2022-08-19T10:45:11;28.00;45.60
3678;DHT22;1855;50.934;6.958;2022-08-19T10:47:38;27.80;47.30
3678;DHT22;1855;50.934;6.958;2022-08-19T10:50:05;27.90;47.80
3678;DHT22;1855;50.934;6.958;2022-08-19T10:52:50;28.20;46.30
3678;DHT22;1855;50.934;6.958;2022-08-19T10:55:19;28.60;45.20
3678;DHT22;1855;50.934;6.958;2022-08-19T10:58:06;28.90;44.80
3678;DHT22;1855;50.934;6.958;2022-08-19T11:00:37;29.00;44.30
3678;DHT22;1855;50.934;6.958;2022-08-19T11:03:04;28.70;43.70
3678;DHT22;1855;50.934;6.958;2022-08-19T11:05:30;28.30;45.10
3678;DHT22;1855;50.934;6.958;2022-08-19T11:07:57;28.20;46.00
3678;DHT22;1855;50.934;6.958;2022-08-19T11:10:24;28.40;46.20
3678;DHT22;1855;50.934;6.958;2022-08-19T11:12:51;28.50;45.70
3678;DHT22;1855;50.934;6.958;2022-08-19T11:15:20;28.30;45.80
3678;DHT22;1855;50.934;6.958;2022-08-19T11:17:48;28.20;46.40
3678;DHT22;1855;50.934;6.958;2022-08-19T11:20:19;28.20;45.80
3678;DHT22;1855;50.934;6.958;2022-08-19T11:22:46;28.20;46.40
3678;DHT22;1855;50.934;6.958;2022-08-19T11:25:13;28.20;44.30
3678;DHT22;1855;50.934;6.958;2022-08-19T11:27:41;28.00;45.90
3678;DHT22;1855;50.934;6.958;2022-08-19T11:30:10;28.00;45.00
3678;DHT22;1855;50.934;6.958;2022-08-19T11:32:37;28.20;44.30
3678;DHT22;1855;50.934;6.958;2022-08-19T11:35:06;28.40;44.30
3678;DHT22;1855;50.934;6.958;2022-08-19T11:37:33;28.40;44.80
3678;DHT22;1855;50.934;6.958;2022-08-19T11:40:03;28.30;42.80
3678;DHT22;1855;50.934;6.958;2022-08-19T11:42:30;28.00;43.20
3678;DHT22;1855;50.934;6.958;2022-08-19T11:45:14;27.50;44.90
3678;DHT22;1855;50.934;6.958;2022-08-19T11:47:41;27.50;46.10
3678;DHT22;1855;50.934;6.958;2022-08-19T11:50:10;27.70;43.90
3678;DHT22;1855;50.934;6.958;2022-08-19T11:52:37;28.20;43.20
3678;DHT22;1855;50.934;6.958;2022-08-19T11:55:05;28.60;43.80
3678;DHT22;1855;50.934;6.958;2022-08-19T11:57:32;28.80;43.00
3678;DHT22;1855;50.934;6.958;2022-08-19T11:59:59;29.10;40.80
3678;DHT22;1855;50.934;6.958;2022-08-19T12:02:27;29.20;41.70
3678;DHT22;1855;50.934;6.958;2022-08-19T12:04:53;29.30;40.80
3678;DHT22;1855;50.934;6.958;2022-08-19T12:07:22;29.00;42.00
3678;DHT22;1855;50.934;6.958;2022-08-19T12:09:50;28.70;42.70
3678;DHT22;1855;50.934;6.958;2022-08-19T12:12:17;28.50;42.70
3678;DHT22;1855;50.934;6.958;2022-08-19T12:14:43;28.40;43.60
3678;DHT22;1855;50.934;6.958;2022-08-19T12:17:12;28.40;42.10
3678;DHT22;1855;50.934;6.958;2022-08-19T12:19:38;28.50;43.20
3678;DHT22;1855;50.934;6.958;2022-08-19T12:22:05;28.90;41.90
3678;DHT22;1855;50.934;6.958;2022-08-19T12:24:34;29.20;41.00
3678;DHT22;1855;50.934;6.958;2022-08-19T12:27:01;29.60;39.80
3678;DHT22;1855;50.934;6.958;2022-08-19T12:29:28;29.90;39.70
3678;DHT22;1855;50.934;6.958;2022-08-19T12:31:56;29.90;38.10
3678;DHT22;1855;50.934;6.958;2022-08-19T12:34:26;30.00;38.40
3678;DHT22;1855;50.934;6.958;2022-08-19T12:36:55;30.00;38.40
3678;DHT22;1855;50.934;6.958;2022-08-19T12:39:22;30.10;37.30
3678;DHT22;1855;50.934;6.958;2022-08-19T12:41:50;30.40;37.20
3678;DHT22;1855;50.934;6.958;2022-08-19T12:44:18;30.60;36.80
3678;DHT22;1855;50.934;6.958;2022-08-19T12:46:45;31.00;36.80
3678;DHT22;1855;50.934;6.958;2022-08-19T12:49:12;30.70;36.40
3678;DHT22;1855;50.934;6.958;2022-08-19T12:51:39;30.40;37.20
3678;DHT22;1855;50.934;6.958;2022-08-19T12:54:08;30.30;38.20
3678;DHT22;1855;50.934;6.958;2022-08-19T12:56:36;30.20;37.70
3678;DHT22;1855;50.934;6.958;2022-08-19T12:59:04;29.90;38.10
3678;DHT22;1855;50.934;6.958;2022-08-19T13:01:33;29.80;38.00
3678;DHT22;1855;50.934;6.958;2022-08-19T13:04:00;29.70;39.60
3678;DHT22;1855;50.934;6.958;2022-08-19T13:06:27;29.70;38.80
3678;DHT22;1855;50.934;6.958;2022-08-19T13:08:54;30.00;38.60
3678;DHT22;1855;50.934;6.958;2022-08-19T13:11:21;30.00;37.40
3678;DHT22;1855;50.934;6.958;2022-08-19T13:13:50;29.60;37.90
3678;DHT22;1855;50.934;6.958;2022-08-19T13:16:19;29.70;39.40
3678;DHT22;1855;50.934;6.958;2022-08-19T13:18:48;30.00;39.30
3678;DHT22;1855;50.934;6.958;2022-08-19T13:21:18;30.30;36.90
3678;DHT22;1855;50.934;6.958;2022-08-19T13:23:46;30.50;37.20
3678;DHT22;1855;50.934;6.958;2022-08-19T13:26:13;30.50;37.20
3678;DHT22;1855;50.934;6.958;2022-08-19T13:28:41;30.50;34.40
3678;DHT22;1855;50.934;6.958;2022-08-19T13:31:29;30.60;35.10
3678;DHT22;1855;50.934;6.958;2022-08-19T13:34:14;30.90;35.80
3678;DHT22;1855;50.934;6.958;2022-08-19T13:36:41;31.10;36.70
3678;DHT22;1855;50.934;6.958;2022-08-19T13:39:08;31.30;33.40
3678;DHT22;1855;50.934;6.958;2022-08-19T13:41:35;31.10;34.10
3678;DHT22;1855;50.934;6.958;2022-08-19T13:44:02;30.70;33.80
3678;DHT22;1855;50.934;6.958;2022-08-19T13:46:31;30.60;36.10
3678;DHT22;1855;50.934;6.958;2022-08-19T13:48:58;30.70;34.60
3678;DHT22;1855;50.934;6.958;2022-08-19T13:51:24;30.80;33.20
3678;DHT22;1855;50.934;6.958;2022-08-19T13:53:51;30.80;33.90
3678;DHT22;1855;50.934;6.958;2022-08-19T13:56:19;30.80;35.60
3678;DHT22;1855;50.934;6.958;2022-08-19T13:58:46;30.90;35.00
3678;DHT22;1855;50.934;6.958;2022-08-19T14:01:19;31.00;33.20
3678;DHT22;1855;50.934;6.958;2022-08-19T14:03:47;31.00;32.20
3678;DHT22;1855;50.934;6.958;2022-08-19T14:06:14;30.80;32.60
3678;DHT22;1855;50.934;6.958;2022-08-19T14:08:43;30.90;33.30
3678;DHT22;1855;50.934;6.958;2022-08-19T14:11:10;30.80;35.60
3678;DHT22;1855;50.934;6.958;2022-08-19T14:13:37;30.80;34.10
3678;DHT22;1855;50.934;6.958;2022-08-19T14:16:07;30.80;34.90
3678;DHT22;1855;50.934;6.958;2022-08-19T14:18:35;30.80;31.70
3678;DHT22;1855;50.934;6.958;2022-08-19T14:21:03;30.70;32.50
3678;DHT22;1855;50.934;6.958;2022-08-19T14:23:31;30.30;33.70
3678;DHT22;1855;50.934;6.958;2022-08-19T14:26:05;30.00;34.70
3678;DHT22;1855;50.934;6.958;2022-08-19T14:28:33;30.10;34.60
3678;DHT22;1855;50.934;6.958;2022-08-19T14:30:59;30.10;34.80
3678;DHT22;1855;50.934;6.958;2022-08-19T14:33:26;30.20;34.70
3678;DHT22;1855;50.934;6.958;2022-08-19T14:35:53;30.30;35.80
3678;DHT22;1855;50.934;6.958;2022-08-19T14:38:21;30.30;34.90
3678;DHT22;1855;50.934;6.958;2022-08-19T14:40:48;30.30;34.60
3678;DHT22;1855;50.934;6.958;2022-08-19T14:43:17;30.50;34.30
3678;DHT22;1855;50.934;6.958;2022-08-19T14:45:44;30.60;34.60
3678;DHT22;1855;50.934;6.958;2022-08-19T14:48:11;30.50;33.20
3678;DHT22;1855;50.934;6.958;2022-08-19T14:50:38;30.20;34.10
3678;DHT22;1855;50.934;6.958;2022-08-19T14:53:07;30.10;34.80
3678;DHT22;1855;50.934;6.958;2022-08-19T14:55:35;30.00;34.80
3678;DHT22;1855;50.934;6.958;2022-08-19T14:58:02;30.10;36.10
3678;DHT22;1855;50.934;6.958;2022-08-19T15:00:29;30.10;34.10
3678;DHT22;1855;50.934;6.958;2022-08-19T15:02:56;30.20;35.20
3678;DHT22;1855;50.934;6.958;2022-08-19T15:05:22;30.30;34.80
3678;DHT22;1855;50.934;6.958;2022-08-19T15:07:49;30.30;34.60
3678;DHT22;1855;50.934;6.958;2022-08-19T15:10:17;30.10;33.40
3678;DHT22;1855;50.934;6.958;2022-08-19T15:12:45;30.20;34.00
3678;DHT22;1855;50.934;6.958;2022-08-19T15:15:14;30.20;34.30
3678;DHT22;1855;50.934;6.958;2022-08-19T15:17:43;30.20;32.40
3678;DHT22;1855;50.934;6.958;2022-08-19T15:20:12;30.10;34.30
3678;DHT22;1855;50.934;6.958;2022-08-19T15:22:39;30.10;33.40
3678;DHT22;1855;50.934;6.958;2022-08-19T15:25:09;30.00;32.60
3678;DHT22;1855;50.934;6.958;2022-08-19T15:27:37;29.70;32.90
3678;DHT22;1855;50.934;6.958;2022-08-19T15:30:06;29.50;34.00
3678;DHT22;1855;50.934;6.958;2022-08-19T15:32:34;29.50;35.40
3678;DHT22;1855;50.934;6.958;2022-08-19T15:35:01;29.60;34.30
3678;DHT22;1855;50.934;6.958;2022-08-19T15:37:28;29.70;32.90
3678;DHT22;1855;50.934;6.958;2022-08-19T15:39:55;29.50;33.10
3678;DHT22;1855;50.934;6.958;2022-08-19T15:42:22;29.50;33.20
3678;DHT22;1855;50.934;6.958;2022-08-19T15:44:51;29.50;33.10
3678;DHT22;1855;50.934;6.958;2022-08-19T15:47:19;29.40;33.70
3678;DHT22;1855;50.934;6.958;2022-08-19T15:49:46;29.30;34.40
3678;DHT22;1855;50.934;6.958;2022-08-19T15:52:13;29.00;35.10
3678;DHT22;1855;50.934;6.958;2022-08-19T15:54:40;28.70;35.30
3678;DHT22;1855;50.934;6.958;2022-08-19T15:57:06;28.70;36.30
3678;DHT22;1855;50.934;6.958;2022-08-19T15:59:51;28.80;37.50
3678;DHT22;1855;50.934;6.958;2022-08-19T16:02:37;28.90;37.80
3678;DHT22;1855;50.934;6.958;2022-08-19T16:05:24;28.80;36.70
3678;DHT22;1855;50.934;6.958;2022-08-19T16:08:09;28.60;37.60
3678;DHT22;1855;50.934;6.958;2022-08-19T16:10:37;28.40;38.90
3678;DHT22;1855;50.934;6.958;2022-08-19T16:13:04;28.20;39.40
3678;DHT22;1855;50.934;6.958;2022-08-19T16:15:32;28.00;40.10
3678;DHT22;1855;50.934;6.958;2022-08-19T16:18:00;27.80;40.50
3678;DHT22;1855;50.934;6.958;2022-08-19T16:20:29;27.80;41.00
3678;DHT22;1855;50.934;6.958;2022-08-19T16:22:56;27.60;41.20
3678;DHT22;1855;50.934;6.958;2022-08-19T16:25:23;27.50;41.60
3678;DHT22;1855;50.934;6.958;2022-08-19T16:27:52;27.50;42.10
3678;DHT22;1855;50.934;6.958;2022-08-19T16:30:19;27.50;41.90
3678;DHT22;1855;50.934;6.958;2022-08-19T16:32:45;27.50;42.00
3678;DHT22;1855;50.934;6.958;2022-08-19T16:35:14;27.40;42.10
3678;DHT22;1855;50.934;6.958;2022-08-19T16:37:40;27.40;42.20
3678;DHT22;1855;50.934;6.958;2022-08-19T16:40:08;27.30;42.30
3678;DHT22;1855;50.934;6.958;2022-08-19T16:42:35;27.20;42.30
3678;DHT22;1855;50.934;6.958;2022-08-19T16:45:03;27.10;42.40
3678;DHT22;1855;50.934;6.958;2022-08-19T16:47:33;27.00;43.30
3678;DHT22;1855;50.934;6.958;2022-08-19T16:50:00;26.90;43.60
3678;DHT22;1855;50.934;6.958;2022-08-19T16:52:28;26.80;43.90
3678;DHT22;1855;50.934;6.958;2022-08-19T16:54:56;26.70;44.10
3678;DHT22;1855;50.934;6.958;2022-08-19T16:57:23;26.60;43.80
3678;DHT22;1855;50.934;6.958;2022-08-19T16:59:50;26.60;44.20
3678;DHT22;1855;50.934;6.958;2022-08-19T17:02:18;26.50;44.70
3678;DHT22;1855;50.934;6.958;2022-08-19T17:04:45;26.40;45.40
3678;DHT22;1855;50.934;6.958;2022-08-19T17:07:14;26.30;45.80
3678;DHT22;1855;50.934;6.958;2022-08-19T17:09:42;26.30;46.10
3678;DHT22;1855;50.934;6.958;2022-08-19T17:12:09;26.20;46.60
3678;DHT22;1855;50.934;6.958;2022-08-19T17:14:37;26.10;47.10
3678;DHT22;1855;50.934;6.958;2022-08-19T17:17:04;26.10;47.20
3678;DHT22;1855;50.934;6.958;2022-08-19T17:19:31;26.10;47.40
3678;DHT22;1855;50.934;6.958;2022-08-19T17:21:58;26.20;47.50
3678;DHT22;1855;50.934;6.958;2022-08-19T17:24:25;26.20;47.20
3678;DHT22;1855;50.934;6.958;2022-08-19T17:26:53;26.20;47.40
3678;DHT22;1855;50.934;6.958;2022-08-19T17:29:20;26.10;47.60
3678;DHT22;1855;50.934;6.958;2022-08-19T17:31:47;26.00;48.10
3678;DHT22;1855;50.934;6.958;2022-08-19T17:34:14;26.00;48.40
3678;DHT22;1855;50.934;6.958;2022-08-19T17:36:41;26.00;48.40
3678;DHT22;1855;50.934;6.958;2022-08-19T17:39:08;26.00;48.50
3678;DHT22;1855;50.934;6.958;2022-08-19T17:41:36;26.00;49.10
3678;DHT22;1855;50.934;6.958;2022-08-19T17:44:04;25.90;50.00
3678;DHT22;1855;50.934;6.958;2022-08-19T17:46:31;25.70;53.50
3678;DHT22;1855;50.934;6.958;2022-08-19T17:48:58;25.50;53.20
3678;DHT22;1855;50.934;6.958;2022-08-19T17:51:38;25.50;53.50
3678;DHT22;1855;50.934;6.958;2022-08-19T17:54:07;25.30;53.70
3678;DHT22;1855;50.934;6.958;2022-08-19T17:56:35;25.00;54.40
3678;DHT22;1855;50.934;6.958;2022-08-19T17:59:04;25.00;54.50
3678;DHT22;1855;50.934;6.958;2022-08-19T18:01:31;24.90;54.60
3678;DHT22;1855;50.934;6.958;2022-08-19T18:03:58;24.90;55.00
3678;DHT22;1855;50.934;6.958;2022-08-19T18:06:26;24.90;55.30
3678;DHT22;1855;50.934;6.958;2022-08-19T18:08:53;24.80;55.20
3678;DHT22;1855;50.934;6.958;2022-08-19T18:11:20;24.80;55.20
3678;DHT22;1855;50.934;6.958;2022-08-19T18:13:47;24.80;55.40
3678;DHT22;1855;50.934;6.958;2022-08-19T18:16:16;24.80;55.40
3678;DHT22;1855;50.934;6.958;2022-08-19T18:18:45;24.70;55.50
3678;DHT22;1855;50.934;6.958;2022-08-19T18:21:12;24.70;55.70
3678;DHT22;1855;50.934;6.958;2022-08-19T18:23:39;24.70;55.90
3678;DHT22;1855;50.934;6.958;2022-08-19T18:26:06;24.60;55.80
3678;DHT22;1855;50.934;6.958;2022-08-19T18:28:34;24.60;55.80
3678;DHT22;1855;50.934;6.958;2022-08-19T18:31:04;24.50;56.00
3678;DHT22;1855;50.934;6.958;2022-08-19T18:33:32;24.50;56.20
3678;DHT22;1855;50.934;6.958;2022-08-19T18:36:00;24.50;56.50
3678;DHT22;1855;50.934;6.958;2022-08-19T18:38:28;24.40;56.60
3678;DHT22;1855;50.934;6.958;2022-08-19T18:41:13;24.40;56.90
3678;DHT22;1855;50.934;6.958;2022-08-19T18:43:57;24.30;57.00
3678;DHT22;1855;50.934;6.958;2022-08-19T18:46:41;24.30;57.20
3678;DHT22;1855;50.934;6.958;2022-08-19T18:49:29;24.30;57.50
3678;DHT22;1855;50.934;6.958;2022-08-19T18:51:56;24.20;57.90
3678;DHT22;1855;50.934;6.958;2022-08-19T18:54:24;24.10;58.20
3678;DHT22;1855;50.934;6.958;2022-08-19T18:56:52;24.10;58.50
3678;DHT22;1855;50.934;6.958;2022-08-19T18:59:20;24.10;58.90
3678;DHT22;1855;50.934;6.958;2022-08-19T19:01:48;24.00;59.10
3678;DHT22;1855;50.934;6.958;2022-08-19T19:04:19;24.00;59.20
3678;DHT22;1855;50.934;6.958;2022-08-19T19:06:47;23.90;59.30
3678;DHT22;1855;50.934;6.958;2022-08-19T19:09:17;23.90;59.30
3678;DHT22;1855;50.934;6.958;2022-08-19T19:11:47;23.90;59.60
3678;DHT22;1855;50.934;6.958;2022-08-19T19:14:17;23.80;59.40
3678;DHT22;1855;50.934;6.958;2022-08-19T19:16:45;23.80;59.60
3678;DHT22;1855;50.934;6.958;2022-08-19T19:19:12;23.80;59.60
3678;DHT22;1855;50.934;6.958;2022-08-19T19:21:40;23.80;59.60
3678;DHT22;1855;50.934;6.958;2022-08-19T19:24:14;23.80;59.50
3678;DHT22;1855;50.934;6.958;2022-08-19T19:26:42;23.80;59.50
3678;DHT22;1855;50.934;6.958;2022-08-19T19:29:11;23.80;59.60
3678;DHT22;1855;50.934;6.958;2022-08-19T19:31:38;23.80;59.70
3678;DHT22;1855;50.934;6.958;2022-08-19T19:34:05;23.80;60.30
3678;DHT22;1855;50.934;6.958;2022-08-19T19:36:32;23.70;60.60
3678;DHT22;1855;50.934;6.958;2022-08-19T19:38:59;23.50;60.80
3678;DHT22;1855;50.934;6.958;2022-08-19T19:41:28;23.20;62.30
3678;DHT22;1855;50.934;6.958;2022-08-19T19:43:57;23.10;63.40
3678;DHT22;1855;50.934;6.958;2022-08-19T19:46:26;22.90;65.00
3678;DHT22;1855;50.934;6.958;2022-08-19T19:48:53;22.70;65.70
3678;DHT22;1855;50.934;6.958;2022-08-19T19:51:21;22.70;67.10
3678;DHT22;1855;50.934;6.958;2022-08-19T19:53:48;22.60;69.20
3678;DHT22;1855;50.934;6.958;2022-08-19T19:56:16;22.50;69.00
3678;DHT22;1855;50.934;6.958;2022-08-19T19:58:44;22.40;70.40
3678;DHT22;1855;50.934;6.958;2022-08-19T20:01:12;22.30;69.90
3678;DHT22;1855;50.934;6.958;2022-08-19T20:03:39;22.30;70.80
3678;DHT22;1855;50.934;6.958;2022-08-19T20:06:06;22.30;71.10
3678;DHT22;1855;50.934;6.958;2022-08-19T20:08:34;22.30;70.80
3678;DHT22;1855;50.934;6.958;2022-08-19T20:11:27;22.30;70.60
3678;DHT22;1855;50.934;6.958;2022-08-19T20:14:00;22.30;71.90
3678;DHT22;1855;50.934;6.958;2022-08-19T20:16:28;22.30;71.20
3678;DHT22;1855;50.934;6.958;2022-08-19T20:18:56;22.30;71.60
3678;DHT22;1855;50.934;6.958;2022-08-19T20:21:24;22.30;72.30
3678;DHT22;1855;50.934;6.958;2022-08-19T20:23:53;22.20;72.80
3678;DHT22;1855;50.934;6.958;2022-08-19T20:26:20;22.20;74.20
3678;DHT22;1855;50.934;6.958;2022-08-19T20:28:47;22.10;74.20
3678;DHT22;1855;50.934;6.958;2022-08-19T20:31:17;22.10;74.40
3678;DHT22;1855;50.934;6.958;2022-08-19T20:33:44;22.00;74.90
3678;DHT22;1855;50.934;6.958;2022-08-19T20:36:11;22.00;74.90
3678;DHT22;1855;50.934;6.958;2022-08-19T20:38:38;21.90;75.70
3678;DHT22;1855;50.934;6.958;2022-08-19T20:41:05;21.70;76.50
3678;DHT22;1855;50.934;6.958;2022-08-19T20:43:33;21.60;78.10
3678;DHT22;1855;50.934;6.958;2022-08-19T20:46:00;21.60;77.30
3678;DHT22;1855;50.934;6.958;2022-08-19T20:48:29;21.60;77.40
3678;DHT22;1855;50.934;6.958;2022-08-19T20:50:56;21.60;77.70
3678;DHT22;1855;50.934;6.958;2022-08-19T20:53:24;21.50;77.80
3678;DHT22;1855;50.934;6.958;2022-08-19T20:55:52;21.40;78.30
3678;DHT22;1855;50.934;6.958;2022-08-19T20:58:21;21.40;78.80
3678;DHT22;1855;50.934;6.958;2022-08-19T21:00:50;21.40;79.00
3678;DHT22;1855;50.934;6.958;2022-08-19T21:03:19;21.40;79.30
3678;DHT22;1855;50.934;6.958;2022-08-19T21:05:48;21.40;78.90
3678;DHT22;1855;50.934;6.958;2022-08-19T21:08:15;21.40;79.40
3678;DHT22;1855;50.934;6.958;2022-08-19T21:10:43;21.30;79.80
3678;DHT22;1855;50.934;6.958;2022-08-19T21:13:10;21.20;80.20
3678;DHT22;1855;50.934;6.958;2022-08-19T21:15:37;21.20;80.70
3678;DHT22;1855;50.934;6.958;2022-08-19T21:18:08;21.20;81.00
3678;DHT22;1855;50.934;6.958;2022-08-19T21:20:36;21.10;81.50
3678;DHT22;1855;50.934;6.958;2022-08-19T21:23:04;21.00;82.20
3678;DHT22;1855;50.934;6.958;2022-08-19T21:25:32;21.00;82.40
3678;DHT22;1855;50.934;6.958;2022-08-19T21:27:59;21.00;82.40
3678;DHT22;1855;50.934;6.958;2022-08-19T21:30:26;21.10;82.20
3678;DHT22;1855;50.934;6.958;2022-08-19T21:32:53;21.10;82.10
3678;DHT22;1855;50.934;6.958;2022-08-19T21:35:20;21.10;82.10
3678;DHT22;1855;50.934;6.958;2022-08-19T21:37:48;21.20;81.90
3678;DHT22;1855;50.934;6.958;2022-08-19T21:40:16;21.10;82.00
3678;DHT22;1855;50.934;6.958;2022-08-19T21:42:44;21.10;82.20
3678;DHT22;1855;50.934;6.958;2022-08-19T21:45:12;21.10;82.10
3678;DHT22;1855;50.934;6.958;2022-08-19T21:47:39;21.10;83.20
3678;DHT22;1855;50.934;6.958;2022-08-19T21:50:07;21.10;82.30
3678;DHT22;1855;50.934;6.958;2022-08-19T21:52:35;21.10;82.20
3678;DHT22;1855;50.934;6.958;2022-08-19T21:55:03;21.00;82.40
3678;DHT22;1855;50.934;6.958;2022-08-19T21:57:32;21.00;82.50
3678;DHT22;1855;50.934;6.958;2022-08-19T21:59:59;21.00;83.40
3678;DHT22;1855;50.934;6.958;2022-08-19T22:02:26;21.00;82.50
3678;DHT22;1855;50.934;6.958;2022-08-19T22:04:54;21.00;82.60
3678;DHT22;1855;50.934;6.958;2022-08-19T22:07:21;21.10;82.50
3678;DHT22;1855;50.934;6.958;2022-08-19T22:09:49;21.00;82.40
3678;DHT22;1855;50.934;6.958;2022-08-19T22:12:21;21.10;82.40
3678;DHT22;1855;50.934;6.958;2022-08-19T22:14:51;21.10;82.20
3678;DHT22;1855;50.934;6.958;2022-08-19T22:17:19;21.20;82.20
3678;DHT22;1855;50.934;6.958;2022-08-19T22:19:47;21.20;81.80
3678;DHT22;1855;50.934;6.958;2022-08-19T22:22:19;21.20;82.00
3678;DHT22;1855;50.934;6.958;2022-08-19T22:24:46;21.10;82.30
3678;DHT22;1855;50.934;6.958;2022-08-19T22:27:13;21.10;82.60
3678;DHT22;1855;50.934;6.958;2022-08-19T22:29:40;21.10;82.60
3678;DHT22;1855;50.934;6.958;2022-08-19T22:32:08;21.10;82.50
3678;DHT22;1855;50.934;6.958;2022-08-19T22:34:35;21.10;82.70
3678;DHT22;1855;50.934;6.958;2022-08-19T22:37:03;21.00;82.90
3678;DHT22;1855;50.934;6.958;2022-08-19T22:39:31;21.00;83.20
3678;DHT22;1855;50.934;6.958;2022-08-19T22:41:58;21.10;83.20
3678;DHT22;1855;50.934;6.958;2022-08-19T22:44:25;21.10;83.00
3678;DHT22;1855;50.934;6.958;2022-08-19T22:46:52;21.10;82.80
3678;DHT22;1855;50.934;6.958;2022-08-19T22:49:20;21.10;82.80
3678;DHT22;1855;50.934;6.958;2022-08-19T22:51:47;21.20;82.80
3678;DHT22;1855;50.934;6.958;2022-08-19T22:54:31;21.10;82.90
3678;DHT22;1855;50.934;6.958;2022-08-19T22:56:58;21.10;83.00
3678;DHT22;1855;50.934;6.958;2022-08-19T22:59:25;21.10;83.30
3678;DHT22;1855;50.934;6.958;2022-08-19T23:01:52;21.00;83.50
3678;DHT22;1855;50.934;6.958;2022-08-19T23:04:20;21.00;84.10
3678;DHT22;1855;50.934;6.958;2022-08-19T23:06:47;21.00;84.00
3678;DHT22;1855;50.934;6.958;2022-08-19T23:09:17;20.90;84.40
3678;DHT22;1855;50.934;6.958;2022-08-19T23:11:45;20.90;84.60
3678;DHT22;1855;50.934;6.958;2022-08-19T23:14:12;20.90;84.60
3678;DHT22;1855;50.934;6.958;2022-08-19T23:16:40;20.90;84.30
3678;DHT22;1855;50.934;6.958;2022-08-19T23:19:07;21.00;84.40
3678;DHT22;1855;50.934;6.958;2022-08-19T23:21:35;21.00;84.20
3678;DHT22;1855;50.934;6.958;2022-08-19T23:24:03;21.00;84.30
3678;DHT22;1855;50.934;6.958;2022-08-19T23:26:31;21.00;84.30
3678;DHT22;1855;50.934;6.958;2022-08-19T23:28:57;21.00;84.10
3678;DHT22;1855;50.934;6.958;2022-08-19T23:31:42;21.10;83.80
3678;DHT22;1855;50.934;6.958;2022-08-19T23:34:09;21.00;84.70
3678;DHT22;1855;50.934;6.958;2022-08-19T23:36:37;21.00;84.00
3678;DHT22;1855;50.934;6.958;2022-08-19T23:39:04;21.00;84.00
3678;DHT22;1855;50.934;6.958;2022-08-19T23:41:30;21.00;84.00
3678;DHT22;1855;50.934;6.958;2022-08-19T23:43:57;21.00;83.90
3678;DHT22;1855;50.934;6.958;2022-08-19T23:46:25;21.00;84.10
3678;DHT22;1855;50.934;6.958;2022-08-19T23:48:51;21.00;84.30
3678;DHT22;1855;50.934;6.958;2022-08-19T23:51:19;20.90;84.40
3678;DHT22;1855;50.934;6.958;2022-08-19T23:53:47;20.90;84.50
3678;DHT22;1855;50.934;6.958;2022-08-19T23:56:14;20.90;84.50
3678;DHT22;1855;50.934;6.958;2022-08-19T23:58:41;20.90;84.40
